sensor_id;sensor_type;location;lat;lon;timestamp;P1;durP1;ratioP1;P2;durP2;ratioP2
77597;SDS011;66756;42.774;23.354;2023-04-01T00:02:11;14.07;;;8.13;;
77597;SDS011;66756;42.774;23.354;2023-04-01T00:04:37;14.35;;;8.25;;
77597;SDS011;66756;42.774;23.354;2023-04-01T00:07:03;17.05;;;8.23;;
77597;SDS011;66756;42.774;23.354;2023-04-01T00:09:29;11.48;;;7.63;;
77597;SDS011;66756;42.774;23.354;2023-04-01T00:11:55;14.32;;;8.27;;
77597;SDS011;66756;42.774;23.354;2023-04-01T00:14:21;15.48;;;7.28;;
77597;SDS011;66756;42.774;23.354;2023-04-01T00:16:47;16.13;;;6.88;;
77597;SDS011;66756;42.774;23.354;2023-04-01T00:19:13;11.80;;;6.43;;
77597;SDS011;66756;42.774;23.354;2023-04-01T00:21:40;14.02;;;6.57;;
77597;SDS011;66756;42.774;23.354;2023-04-01T00:24:06;10.02;;;6.00;;
77597;SDS011;66756;42.774;23.354;2023-04-01T00:26:32;8.43;;;5.10;;
77597;SDS011;66756;42.774;23.354;2023-04-01T00:28:58;12.40;;;7.97;;
77597;SDS011;66756;42.774;23.354;2023-04-01T00:31:25;13.35;;;7.22;;
77597;SDS011;66756;42.774;23.354;2023-04-01T00:33:51;11.98;;;6.28;;
77597;SDS011;66756;42.774;23.354;2023-04-01T00:36:19;10.40;;;6.63;;
77597;SDS011;66756;42.774;23.354;2023-04-01T00:38:46;12.52;;;9.00;;
77597;SDS011;66756;42.774;23.354;2023-04-01T00:41:13;17.42;;;7.30;;
77597;SDS011;66756;42.774;23.354;2023-04-01T00:43:41;12.15;;;8.23;;
77597;SDS011;66756;42.774;23.354;2023-04-01T00:46:07;13.00;;;8.70;;
77597;SDS011;66756;42.774;23.354;2023-04-01T00:48:33;14.60;;;7.88;;
77597;SDS011;66756;42.774;23.354;2023-04-01T00:51:15;13.20;;;7.57;;
77597;SDS011;66756;42.774;23.354;2023-04-01T00:53:43;15.20;;;7.57;;
77597;SDS011;66756;42.774;23.354;2023-04-01T00:56:21;15.07;;;7.38;;
77597;SDS011;66756;42.774;23.354;2023-04-01T00:58:49;15.27;;;8.70;;
77597;SDS011;66756;42.774;23.354;2023-04-01T01:01:17;15.40;;;10.27;;
77597;SDS011;66756;42.774;23.354;2023-04-01T01:03:43;22.02;;;11.13;;
77597;SDS011;66756;42.774;23.354;2023-04-01T01:11:03;18.48;;;9.75;;
77597;SDS011;66756;42.774;23.354;2023-04-01T01:13:34;20.10;;;9.43;;
77597;SDS011;66756;42.774;23.354;2023-04-01T01:16:20;18.58;;;10.27;;
77597;SDS011;66756;42.774;23.354;2023-04-01T01:29:40;19.77;;;8.82;;
77597;SDS011;66756;42.774;23.354;2023-04-01T01:34:42;15.88;;;8.07;;
77597;SDS011;66756;42.774;23.354;2023-04-01T01:37:16;16.15;;;10.45;;
77597;SDS011;66756;42.774;23.354;2023-04-01T01:39:43;14.55;;;10.05;;
77597;SDS011;66756;42.774;23.354;2023-04-01T01:42:11;16.73;;;8.80;;
77597;SDS011;66756;42.774;23.354;2023-04-01T01:44:38;15.85;;;8.07;;
77597;SDS011;66756;42.774;23.354;2023-04-01T01:47:06;17.05;;;8.63;;
77597;SDS011;66756;42.774;23.354;2023-04-01T01:49:33;14.70;;;9.43;;
77597;SDS011;66756;42.774;23.354;2023-04-01T01:52:01;13.70;;;7.65;;
77597;SDS011;66756;42.774;23.354;2023-04-01T01:54:27;16.33;;;7.22;;
77597;SDS011;66756;42.774;23.354;2023-04-01T01:56:55;13.88;;;8.38;;
77597;SDS011;66756;42.774;23.354;2023-04-01T01:59:25;11.93;;;8.07;;
77597;SDS011;66756;42.774;23.354;2023-04-01T02:01:52;12.95;;;7.78;;
77597;SDS011;66756;42.774;23.354;2023-04-01T02:04:20;16.42;;;7.75;;
77597;SDS011;66756;42.774;23.354;2023-04-01T02:06:55;21.77;;;10.43;;
77597;SDS011;66756;42.774;23.354;2023-04-01T02:09:23;12.90;;;7.53;;
77597;SDS011;66756;42.774;23.354;2023-04-01T02:14:22;11.63;;;6.30;;
77597;SDS011;66756;42.774;23.354;2023-04-01T02:19:16;12.35;;;7.35;;
77597;SDS011;66756;42.774;23.354;2023-04-01T02:21:47;12.18;;;6.95;;
77597;SDS011;66756;42.774;23.354;2023-04-01T02:24:13;10.15;;;5.55;;
77597;SDS011;66756;42.774;23.354;2023-04-01T02:26:41;11.27;;;5.50;;
77597;SDS011;66756;42.774;23.354;2023-04-01T02:29:07;11.57;;;5.80;;
77597;SDS011;66756;42.774;23.354;2023-04-01T02:31:34;10.95;;;6.20;;
77597;SDS011;66756;42.774;23.354;2023-04-01T02:34:02;12.75;;;8.02;;
77597;SDS011;66756;42.774;23.354;2023-04-01T02:36:28;9.65;;;5.60;;
77597;SDS011;66756;42.774;23.354;2023-04-01T02:38:54;10.30;;;6.47;;
77597;SDS011;66756;42.774;23.354;2023-04-01T02:41:22;9.88;;;5.40;;
77597;SDS011;66756;42.774;23.354;2023-04-01T02:43:48;11.77;;;6.55;;
77597;SDS011;66756;42.774;23.354;2023-04-01T02:46:14;12.38;;;6.15;;
77597;SDS011;66756;42.774;23.354;2023-04-01T02:48:40;10.77;;;5.57;;
77597;SDS011;66756;42.774;23.354;2023-04-01T02:51:07;10.23;;;5.20;;
77597;SDS011;66756;42.774;23.354;2023-04-01T02:53:33;9.18;;;5.05;;
77597;SDS011;66756;42.774;23.354;2023-04-01T02:56:00;10.30;;;5.25;;
77597;SDS011;66756;42.774;23.354;2023-04-01T02:58:26;9.90;;;6.30;;
77597;SDS011;66756;42.774;23.354;2023-04-01T03:00:52;11.00;;;5.18;;
77597;SDS011;66756;42.774;23.354;2023-04-01T03:03:18;10.45;;;4.65;;
77597;SDS011;66756;42.774;23.354;2023-04-01T03:05:44;11.00;;;5.47;;
77597;SDS011;66756;42.774;23.354;2023-04-01T03:08:10;7.70;;;6.03;;
77597;SDS011;66756;42.774;23.354;2023-04-01T03:10:36;8.48;;;4.85;;
77597;SDS011;66756;42.774;23.354;2023-04-01T03:13:03;10.73;;;4.53;;
77597;SDS011;66756;42.774;23.354;2023-04-01T03:15:29;9.32;;;4.55;;
77597;SDS011;66756;42.774;23.354;2023-04-01T03:17:55;10.98;;;4.97;;
77597;SDS011;66756;42.774;23.354;2023-04-01T03:20:21;12.57;;;7.00;;
77597;SDS011;66756;42.774;23.354;2023-04-01T03:22:47;10.18;;;5.57;;
77597;SDS011;66756;42.774;23.354;2023-04-01T03:25:13;13.10;;;6.13;;
77597;SDS011;66756;42.774;23.354;2023-04-01T03:27:39;12.02;;;6.03;;
77597;SDS011;66756;42.774;23.354;2023-04-01T03:30:05;13.10;;;6.32;;
77597;SDS011;66756;42.774;23.354;2023-04-01T03:32:32;15.77;;;6.50;;
77597;SDS011;66756;42.774;23.354;2023-04-01T03:34:58;12.73;;;7.32;;
77597;SDS011;66756;42.774;23.354;2023-04-01T03:37:24;13.57;;;9.38;;
77597;SDS011;66756;42.774;23.354;2023-04-01T03:39:50;14.85;;;7.10;;
77597;SDS011;66756;42.774;23.354;2023-04-01T03:42:16;11.38;;;5.85;;
77597;SDS011;66756;42.774;23.354;2023-04-01T03:44:42;13.80;;;6.18;;
77597;SDS011;66756;42.774;23.354;2023-04-01T03:47:08;10.93;;;6.88;;
77597;SDS011;66756;42.774;23.354;2023-04-01T03:49:34;8.60;;;6.13;;
77597;SDS011;66756;42.774;23.354;2023-04-01T03:52:01;54.15;;;21.50;;
77597;SDS011;66756;42.774;23.354;2023-04-01T03:54:27;22.05;;;9.73;;
77597;SDS011;66756;42.774;23.354;2023-04-01T03:56:53;18.08;;;9.15;;
77597;SDS011;66756;42.774;23.354;2023-04-01T03:59:20;13.27;;;6.68;;
77597;SDS011;66756;42.774;23.354;2023-04-01T04:01:46;13.02;;;6.57;;
77597;SDS011;66756;42.774;23.354;2023-04-01T04:04:13;10.13;;;7.05;;
77597;SDS011;66756;42.774;23.354;2023-04-01T04:06:39;12.60;;;6.15;;
77597;SDS011;66756;42.774;23.354;2023-04-01T04:09:05;11.70;;;5.85;;
77597;SDS011;66756;42.774;23.354;2023-04-01T04:11:31;8.10;;;7.22;;
77597;SDS011;66756;42.774;23.354;2023-04-01T04:13:58;7.68;;;4.85;;
77597;SDS011;66756;42.774;23.354;2023-04-01T04:16:24;12.18;;;5.82;;
77597;SDS011;66756;42.774;23.354;2023-04-01T04:18:50;14.02;;;5.10;;
77597;SDS011;66756;42.774;23.354;2023-04-01T04:21:16;11.90;;;4.80;;
77597;SDS011;66756;42.774;23.354;2023-04-01T04:23:42;8.43;;;4.05;;
77597;SDS011;66756;42.774;23.354;2023-04-01T04:26:10;6.97;;;3.60;;
77597;SDS011;66756;42.774;23.354;2023-04-01T04:28:36;9.75;;;4.47;;
77597;SDS011;66756;42.774;23.354;2023-04-01T04:31:02;10.18;;;5.65;;
77597;SDS011;66756;42.774;23.354;2023-04-01T04:33:30;11.02;;;5.38;;
77597;SDS011;66756;42.774;23.354;2023-04-01T04:35:57;10.80;;;4.95;;
77597;SDS011;66756;42.774;23.354;2023-04-01T04:38:23;11.57;;;5.03;;
77597;SDS011;66756;42.774;23.354;2023-04-01T04:40:50;11.73;;;7.45;;
77597;SDS011;66756;42.774;23.354;2023-04-01T04:43:16;10.50;;;6.47;;
77597;SDS011;66756;42.774;23.354;2023-04-01T04:45:44;14.73;;;6.03;;
77597;SDS011;66756;42.774;23.354;2023-04-01T04:48:11;13.90;;;7.97;;
77597;SDS011;66756;42.774;23.354;2023-04-01T04:50:45;10.30;;;6.30;;
77597;SDS011;66756;42.774;23.354;2023-04-01T04:53:12;10.32;;;6.68;;
77597;SDS011;66756;42.774;23.354;2023-04-01T04:55:42;10.88;;;6.05;;
77597;SDS011;66756;42.774;23.354;2023-04-01T04:58:08;9.15;;;4.93;;
77597;SDS011;66756;42.774;23.354;2023-04-01T05:00:34;11.95;;;5.85;;
77597;SDS011;66756;42.774;23.354;2023-04-01T05:03:00;10.52;;;5.28;;
77597;SDS011;66756;42.774;23.354;2023-04-01T05:05:26;11.15;;;6.10;;
77597;SDS011;66756;42.774;23.354;2023-04-01T05:07:53;11.20;;;6.50;;
77597;SDS011;66756;42.774;23.354;2023-04-01T05:10:19;10.25;;;5.50;;
77597;SDS011;66756;42.774;23.354;2023-04-01T05:12:45;10.65;;;6.38;;
77597;SDS011;66756;42.774;23.354;2023-04-01T05:15:11;8.80;;;5.47;;
77597;SDS011;66756;42.774;23.354;2023-04-01T05:17:38;14.02;;;7.03;;
77597;SDS011;66756;42.774;23.354;2023-04-01T05:20:05;9.65;;;5.80;;
77597;SDS011;66756;42.774;23.354;2023-04-01T05:22:31;12.52;;;7.15;;
77597;SDS011;66756;42.774;23.354;2023-04-01T05:24:57;9.38;;;7.10;;
77597;SDS011;66756;42.774;23.354;2023-04-01T05:27:23;11.48;;;6.28;;
77597;SDS011;66756;42.774;23.354;2023-04-01T05:29:50;14.80;;;11.50;;
77597;SDS011;66756;42.774;23.354;2023-04-01T05:32:16;17.40;;;7.43;;
77597;SDS011;66756;42.774;23.354;2023-04-01T05:34:42;14.98;;;9.70;;
77597;SDS011;66756;42.774;23.354;2023-04-01T05:37:08;21.67;;;13.20;;
77597;SDS011;66756;42.774;23.354;2023-04-01T05:39:36;15.48;;;10.40;;
77597;SDS011;66756;42.774;23.354;2023-04-01T05:42:02;15.40;;;7.28;;
77597;SDS011;66756;42.774;23.354;2023-04-01T05:44:28;14.02;;;8.80;;
77597;SDS011;66756;42.774;23.354;2023-04-01T05:46:54;12.15;;;6.75;;
77597;SDS011;66756;42.774;23.354;2023-04-01T05:49:20;16.65;;;9.13;;
77597;SDS011;66756;42.774;23.354;2023-04-01T05:51:46;12.68;;;6.78;;
77597;SDS011;66756;42.774;23.354;2023-04-01T05:54:16;13.77;;;6.82;;
77597;SDS011;66756;42.774;23.354;2023-04-01T05:56:42;13.60;;;7.10;;
77597;SDS011;66756;42.774;23.354;2023-04-01T05:59:09;13.85;;;6.72;;
77597;SDS011;66756;42.774;23.354;2023-04-01T06:01:36;15.65;;;8.85;;
77597;SDS011;66756;42.774;23.354;2023-04-01T06:04:02;14.75;;;7.22;;
77597;SDS011;66756;42.774;23.354;2023-04-01T06:06:28;16.05;;;7.78;;
77597;SDS011;66756;42.774;23.354;2023-04-01T06:08:56;11.65;;;8.00;;
77597;SDS011;66756;42.774;23.354;2023-04-01T06:11:25;10.98;;;5.70;;
77597;SDS011;66756;42.774;23.354;2023-04-01T06:16:45;10.65;;;4.90;;
77597;SDS011;66756;42.774;23.354;2023-04-01T06:47:23;8.60;;;5.97;;
77597;SDS011;66756;42.774;23.354;2023-04-01T06:55:17;8.13;;;4.75;;
77597;SDS011;66756;42.774;23.354;2023-04-01T06:57:45;10.50;;;5.78;;
77597;SDS011;66756;42.774;23.354;2023-04-01T07:00:19;9.73;;;5.50;;
77597;SDS011;66756;42.774;23.354;2023-04-01T07:02:50;6.97;;;4.57;;
77597;SDS011;66756;42.774;23.354;2023-04-01T07:05:23;8.98;;;4.00;;
77597;SDS011;66756;42.774;23.354;2023-04-01T07:07:50;7.05;;;3.55;;
77597;SDS011;66756;42.774;23.354;2023-04-01T07:13:07;6.93;;;3.78;;
77597;SDS011;66756;42.774;23.354;2023-04-01T07:15:37;6.55;;;2.55;;
77597;SDS011;66756;42.774;23.354;2023-04-01T07:21:00;8.27;;;2.65;;
77597;SDS011;66756;42.774;23.354;2023-04-01T07:23:36;5.82;;;3.92;;
77597;SDS011;66756;42.774;23.354;2023-04-01T07:26:11;4.47;;;3.22;;
77597;SDS011;66756;42.774;23.354;2023-04-01T07:28:40;5.55;;;4.15;;
77597;SDS011;66756;42.774;23.354;2023-04-01T07:31:18;7.90;;;4.70;;
77597;SDS011;66756;42.774;23.354;2023-04-01T07:33:52;6.95;;;4.13;;
77597;SDS011;66756;42.774;23.354;2023-04-01T07:36:22;8.57;;;4.40;;
77597;SDS011;66756;42.774;23.354;2023-04-01T07:46:37;5.80;;;2.78;;
77597;SDS011;66756;42.774;23.354;2023-04-01T07:54:15;4.60;;;2.47;;
77597;SDS011;66756;42.774;23.354;2023-04-01T08:02:43;5.10;;;3.13;;
77597;SDS011;66756;42.774;23.354;2023-04-01T08:10:32;4.28;;;2.78;;
77597;SDS011;66756;42.774;23.354;2023-04-01T08:15:27;4.75;;;2.63;;
77597;SDS011;66756;42.774;23.354;2023-04-01T08:25:30;5.00;;;2.15;;
77597;SDS011;66756;42.774;23.354;2023-04-01T08:38:00;5.95;;;1.23;;
77597;SDS011;66756;42.774;23.354;2023-04-01T08:40:46;4.68;;;3.20;;
77597;SDS011;66756;42.774;23.354;2023-04-01T08:48:34;5.43;;;1.98;;
77597;SDS011;66756;42.774;23.354;2023-04-01T08:51:06;3.22;;;2.30;;
77597;SDS011;66756;42.774;23.354;2023-04-01T09:06:28;4.15;;;2.78;;
77597;SDS011;66756;42.774;23.354;2023-04-01T09:17:19;4.60;;;2.55;;
77597;SDS011;66756;42.774;23.354;2023-04-01T09:38:30;3.15;;;1.02;;
77597;SDS011;66756;42.774;23.354;2023-04-01T09:53:48;5.43;;;2.28;;
77597;SDS011;66756;42.774;23.354;2023-04-01T09:56:30;6.70;;;2.65;;
77597;SDS011;66756;42.774;23.354;2023-04-01T10:12:22;3.47;;;1.35;;
77597;SDS011;66756;42.774;23.354;2023-04-01T10:20:14;5.45;;;1.05;;
77597;SDS011;66756;42.774;23.354;2023-04-01T10:32:59;5.20;;;0.90;;
77597;SDS011;66756;42.774;23.354;2023-04-01T10:38:08;5.03;;;1.02;;
77597;SDS011;66756;42.774;23.354;2023-04-01T10:40:44;3.28;;;0.65;;
77597;SDS011;66756;42.774;23.354;2023-04-01T10:51:56;3.90;;;2.08;;
77597;SDS011;66756;42.774;23.354;2023-04-01T11:15:40;3.83;;;1.42;;
77597;SDS011;66756;42.774;23.354;2023-04-01T11:18:36;5.40;;;1.60;;
77597;SDS011;66756;42.774;23.354;2023-04-01T11:26:30;4.65;;;3.20;;
77597;SDS011;66756;42.774;23.354;2023-04-01T11:29:08;5.35;;;2.22;;
77597;SDS011;66756;42.774;23.354;2023-04-01T11:31:47;5.85;;;3.92;;
77597;SDS011;66756;42.774;23.354;2023-04-01T11:37:06;6.18;;;3.40;;
77597;SDS011;66756;42.774;23.354;2023-04-01T11:39:59;10.77;;;4.53;;
77597;SDS011;66756;42.774;23.354;2023-04-01T11:42:34;3.90;;;1.05;;
77597;SDS011;66756;42.774;23.354;2023-04-01T11:45:07;2.65;;;0.65;;
77597;SDS011;66756;42.774;23.354;2023-04-01T11:47:45;4.43;;;2.50;;
77597;SDS011;66756;42.774;23.354;2023-04-01T11:55:23;4.30;;;0.95;;
77597;SDS011;66756;42.774;23.354;2023-04-01T11:57:55;6.35;;;2.38;;
77597;SDS011;66756;42.774;23.354;2023-04-01T12:08:28;4.20;;;1.30;;
77597;SDS011;66756;42.774;23.354;2023-04-01T12:11:04;8.43;;;1.90;;
77597;SDS011;66756;42.774;23.354;2023-04-01T12:13:46;4.40;;;0.80;;
77597;SDS011;66756;42.774;23.354;2023-04-01T12:21:34;4.60;;;2.22;;
77597;SDS011;66756;42.774;23.354;2023-04-01T12:49:49;3.10;;;0.93;;
77597;SDS011;66756;42.774;23.354;2023-04-01T13:02:15;4.55;;;1.85;;
77597;SDS011;66756;42.774;23.354;2023-04-01T13:18:16;4.50;;;1.70;;
77597;SDS011;66756;42.774;23.354;2023-04-01T13:21:04;4.43;;;1.80;;
77597;SDS011;66756;42.774;23.354;2023-04-01T13:39:27;3.55;;;1.55;;
77597;SDS011;66756;42.774;23.354;2023-04-01T13:42:06;4.78;;;3.17;;
77597;SDS011;66756;42.774;23.354;2023-04-01T13:44:38;3.33;;;1.17;;
77597;SDS011;66756;42.774;23.354;2023-04-01T13:49:57;4.00;;;2.25;;
77597;SDS011;66756;42.774;23.354;2023-04-01T13:52:33;15.60;;;14.00;;
77597;SDS011;66756;42.774;23.354;2023-04-01T14:05:40;6.55;;;4.53;;
77597;SDS011;66756;42.774;23.354;2023-04-01T14:19:19;10.10;;;5.93;;
77597;SDS011;66756;42.774;23.354;2023-04-01T14:27:29;3.20;;;1.27;;
77597;SDS011;66756;42.774;23.354;2023-04-01T14:35:17;6.93;;;3.15;;
77597;SDS011;66756;42.774;23.354;2023-04-01T14:49:05;6.05;;;3.03;;
77597;SDS011;66756;42.774;23.354;2023-04-01T14:51:39;4.82;;;1.77;;
77597;SDS011;66756;42.774;23.354;2023-04-01T14:56:51;3.20;;;1.48;;
77597;SDS011;66756;42.774;23.354;2023-04-01T15:01:54;13.85;;;7.32;;
77597;SDS011;66756;42.774;23.354;2023-04-01T15:04:37;3.90;;;2.40;;
77597;SDS011;66756;42.774;23.354;2023-04-01T15:12:50;2.78;;;2.08;;
77597;SDS011;66756;42.774;23.354;2023-04-01T15:25:45;3.67;;;2.80;;
77597;SDS011;66756;42.774;23.354;2023-04-01T15:33:48;5.90;;;2.53;;
77597;SDS011;66756;42.774;23.354;2023-04-01T15:36:27;7.57;;;5.22;;
77597;SDS011;66756;42.774;23.354;2023-04-01T15:39:14;5.70;;;4.05;;
77597;SDS011;66756;42.774;23.354;2023-04-01T15:46:53;2.80;;;2.10;;
77597;SDS011;66756;42.774;23.354;2023-04-01T16:05:08;1.77;;;0.82;;
77597;SDS011;66756;42.774;23.354;2023-04-01T16:15:39;3.58;;;1.10;;
77597;SDS011;66756;42.774;23.354;2023-04-01T16:26:15;3.10;;;1.40;;
77597;SDS011;66756;42.774;23.354;2023-04-01T16:34:08;4.03;;;1.88;;
77597;SDS011;66756;42.774;23.354;2023-04-01T16:41:41;2.88;;;2.10;;
77597;SDS011;66756;42.774;23.354;2023-04-01T16:44:10;2.65;;;2.35;;
77597;SDS011;66756;42.774;23.354;2023-04-01T16:46:46;3.05;;;1.88;;
77597;SDS011;66756;42.774;23.354;2023-04-01T16:49:20;2.40;;;0.70;;
77597;SDS011;66756;42.774;23.354;2023-04-01T16:59:36;1.65;;;1.02;;
77597;SDS011;66756;42.774;23.354;2023-04-01T17:02:07;1.48;;;1.05;;
77597;SDS011;66756;42.774;23.354;2023-04-01T17:04:43;1.23;;;0.95;;
77597;SDS011;66756;42.774;23.354;2023-04-01T17:09:49;1.60;;;1.50;;
77597;SDS011;66756;42.774;23.354;2023-04-01T17:22:44;2.05;;;1.65;;
77597;SDS011;66756;42.774;23.354;2023-04-01T17:35:36;2.70;;;1.95;;
77597;SDS011;66756;42.774;23.354;2023-04-01T17:38:07;3.75;;;2.13;;
77597;SDS011;66756;42.774;23.354;2023-04-01T17:45:59;1.50;;;1.23;;
77597;SDS011;66756;42.774;23.354;2023-04-01T17:48:45;2.13;;;1.45;;
77597;SDS011;66756;42.774;23.354;2023-04-01T17:52:17;2.92;;;1.98;;
77597;SDS011;66756;42.774;23.354;2023-04-01T18:17:49;3.67;;;3.38;;
77597;SDS011;66756;42.774;23.354;2023-04-01T18:22:48;3.45;;;3.15;;
77597;SDS011;66756;42.774;23.354;2023-04-01T18:25:21;4.35;;;2.88;;
77597;SDS011;66756;42.774;23.354;2023-04-01T18:27:52;3.42;;;2.05;;
77597;SDS011;66756;42.774;23.354;2023-04-01T18:35:17;2.42;;;2.20;;
77597;SDS011;66756;42.774;23.354;2023-04-01T18:37:47;3.10;;;2.60;;
77597;SDS011;66756;42.774;23.354;2023-04-01T18:43:12;3.75;;;2.10;;
77597;SDS011;66756;42.774;23.354;2023-04-01T18:45:54;2.80;;;2.15;;
77597;SDS011;66756;42.774;23.354;2023-04-01T18:53:55;2.55;;;2.05;;
77597;SDS011;66756;42.774;23.354;2023-04-01T18:56:24;2.08;;;1.40;;
77597;SDS011;66756;42.774;23.354;2023-04-01T18:58:59;2.70;;;1.83;;
77597;SDS011;66756;42.774;23.354;2023-04-01T19:01:35;2.97;;;2.38;;
77597;SDS011;66756;42.774;23.354;2023-04-01T19:07:32;3.15;;;2.60;;
77597;SDS011;66756;42.774;23.354;2023-04-01T19:09:48;3.42;;;3.13;;
77597;SDS011;66756;42.774;23.354;2023-04-01T19:12:19;2.83;;;2.38;;
77597;SDS011;66756;42.774;23.354;2023-04-01T19:17:20;3.28;;;2.20;;
77597;SDS011;66756;42.774;23.354;2023-04-01T19:22:30;2.78;;;1.15;;
77597;SDS011;66756;42.774;23.354;2023-04-01T19:27:46;3.08;;;2.03;;
77597;SDS011;66756;42.774;23.354;2023-04-01T19:38:04;2.75;;;2.30;;
77597;SDS011;66756;42.774;23.354;2023-04-01T19:43:02;1.67;;;1.40;;
77597;SDS011;66756;42.774;23.354;2023-04-01T19:50:59;2.45;;;1.75;;
77597;SDS011;66756;42.774;23.354;2023-04-01T19:56:16;2.42;;;1.55;;
77597;SDS011;66756;42.774;23.354;2023-04-01T20:01:09;3.72;;;2.03;;
77597;SDS011;66756;42.774;23.354;2023-04-01T20:06:05;3.17;;;2.42;;
77597;SDS011;66756;42.774;23.354;2023-04-01T20:16:01;2.55;;;2.13;;
77597;SDS011;66756;42.774;23.354;2023-04-01T20:21:02;2.40;;;1.90;;
77597;SDS011;66756;42.774;23.354;2023-04-01T20:23:39;2.70;;;2.50;;
77597;SDS011;66756;42.774;23.354;2023-04-01T20:26:11;2.75;;;1.60;;
77597;SDS011;66756;42.774;23.354;2023-04-01T20:31:31;2.80;;;1.50;;
77597;SDS011;66756;42.774;23.354;2023-04-01T20:39:39;2.90;;;1.42;;
77597;SDS011;66756;42.774;23.354;2023-04-01T20:42:29;2.05;;;1.75;;
77597;SDS011;66756;42.774;23.354;2023-04-01T20:53:01;5.07;;;2.38;;
77597;SDS011;66756;42.774;23.354;2023-04-01T21:00:50;5.53;;;3.42;;
77597;SDS011;66756;42.774;23.354;2023-04-01T21:03:21;4.18;;;3.78;;
77597;SDS011;66756;42.774;23.354;2023-04-01T21:08:36;4.57;;;3.28;;
77597;SDS011;66756;42.774;23.354;2023-04-01T21:11:20;5.13;;;3.25;;
77597;SDS011;66756;42.774;23.354;2023-04-01T21:13:52;5.60;;;3.95;;
77597;SDS011;66756;42.774;23.354;2023-04-01T21:16:25;6.88;;;5.30;;
77597;SDS011;66756;42.774;23.354;2023-04-01T21:34:42;4.03;;;2.00;;
77597;SDS011;66756;42.774;23.354;2023-04-01T22:06:28;3.67;;;1.95;;
77597;SDS011;66756;42.774;23.354;2023-04-01T22:09:05;2.88;;;1.08;;
77597;SDS011;66756;42.774;23.354;2023-04-01T22:14:13;3.55;;;1.73;;
77597;SDS011;66756;42.774;23.354;2023-04-01T22:19:35;4.82;;;2.00;;
77597;SDS011;66756;42.774;23.354;2023-04-01T22:22:10;2.97;;;1.77;;
77597;SDS011;66756;42.774;23.354;2023-04-01T22:29:46;2.80;;;1.40;;
77597;SDS011;66756;42.774;23.354;2023-04-01T22:32:18;2.28;;;0.88;;
77597;SDS011;66756;42.774;23.354;2023-04-01T22:34:50;2.22;;;1.08;;
77597;SDS011;66756;42.774;23.354;2023-04-01T22:40:06;3.75;;;1.90;;
77597;SDS011;66756;42.774;23.354;2023-04-01T22:50:13;5.63;;;2.63;;
77597;SDS011;66756;42.774;23.354;2023-04-01T22:52:42;5.07;;;3.15;;
77597;SDS011;66756;42.774;23.354;2023-04-01T22:55:23;5.18;;;2.85;;
77597;SDS011;66756;42.774;23.354;2023-04-01T22:57:50;6.00;;;3.78;;
77597;SDS011;66756;42.774;23.354;2023-04-01T23:00:26;5.45;;;3.90;;
77597;SDS011;66756;42.774;23.354;2023-04-01T23:05:49;3.83;;;2.40;;
77597;SDS011;66756;42.774;23.354;2023-04-01T23:11:05;5.50;;;2.92;;
77597;SDS011;66756;42.774;23.354;2023-04-01T23:13:34;5.10;;;2.88;;
77597;SDS011;66756;42.774;23.354;2023-04-01T23:16:02;6.63;;;2.72;;
77597;SDS011;66756;42.774;23.354;2023-04-01T23:23:54;2.75;;;2.33;;
77597;SDS011;66756;42.774;23.354;2023-04-01T23:26:30;3.80;;;1.88;;
77597;SDS011;66756;42.774;23.354;2023-04-01T23:28:57;3.55;;;2.30;;
77597;SDS011;66756;42.774;23.354;2023-04-01T23:33:54;3.38;;;1.73;;
77597;SDS011;66756;42.774;23.354;2023-04-01T23:36:20;3.08;;;2.05;;
77597;SDS011;66756;42.774;23.354;2023-04-01T23:38:47;3.28;;;1.65;;
77597;SDS011;66756;42.774;23.354;2023-04-01T23:41:18;3.50;;;2.10;;
77597;SDS011;66756;42.774;23.354;2023-04-01T23:43:45;2.55;;;2.35;;
77597;SDS011;66756;42.774;23.354;2023-04-01T23:46:14;3.17;;;2.00;;
77597;SDS011;66756;42.774;23.354;2023-04-01T23:48:41;3.45;;;1.75;;
77597;SDS011;66756;42.774;23.354;2023-04-01T23:53:44;3.63;;;1.75;;
77597;SDS011;66756;42.774;23.354;2023-04-01T23:56:11;2.35;;;1.33;;
